Hauptseite
METAR-TAF:

METAR-TAF

Flughäfen :

L.F. Wade International Airport

Bermuda, Bermuda

Breite: 32-22N, Länge: 064-41W, Höhe: 6 m

Beobachtung

Neuester Wetterbericht von vor 14 Minuten, um 02:55 UTC
Wind 7 kt aus Südwest
Temperatur 27°C
Luftfeuchtigkeit 79%
Luftdruck 1021 hPa
Sichtweite 10 km oder mehr
Leicht bewölkt in der Höhe von 2400 ft

METAR: TXKF 200255Z 22007KT 9999 FEW024 27/23 Q1021

Zeit: 00:09 (03:09 UTC)

Prognose

Neuester Wetterbericht von vor 3 Stunden und 30 Minuten, um 23:39 UTC
Gültige Prognose vom 20 um 00 UTC bis 20 um 24 UTC
Wind 6 kt aus West/Südwest
Sichtweite 10 km oder mehr
Leicht bewölkt in der Höhe von 2000 ft
Aufgelockert bewölkt in der Höhe von 30000 ft

TAF: TXKF 192339Z 2000/2024 24006KT 9999 FEW020 SCT300

Wetterbeobachtungen und Prognosen von mehr als 4000 Flughäfen (METAR und TAF Bericht).

Die verfügbaren Stationen werden durch gelbe und rote Markierungen auf der Karte dargestellt.

Führen Sie die Maus auf sie, um den Namen der Station zu sehen.

Darauf klicken, um die Beobachtung von Wetterbeobachtungen und Prognosen zu sehen.

Um die Karte zu ändern : klicken Sie auf den grünen Tasten mit einem schwarzen Kreuz Zum Vergrößern, auf den grünen Button mit einem Gedankenstrich zu verkleinern, oder auf die grünen Pfeile für benachbarte Karten.


METAR-TAF: